sensor_id;sensor_type;location;lat;lon;timestamp;pressure;altitude;pressure_sealevel;temperature;humidity
53647;BME280;39550;52.230;5.194;2024-01-11T00:02:07;103208.47;;;14.13;51.73
53647;BME280;39550;52.230;5.194;2024-01-11T00:04:32;103210.00;;;14.06;51.92
53647;BME280;39550;52.230;5.194;2024-01-11T00:06:58;103210.59;;;13.98;52.00
53647;BME280;39550;52.230;5.194;2024-01-11T00:09:23;103208.81;;;13.96;51.87
53647;BME280;39550;52.230;5.194;2024-01-11T00:11:48;103206.97;;;13.92;51.91
53647;BME280;39550;52.230;5.194;2024-01-11T00:14:14;103210.38;;;13.91;51.94
53647;BME280;39550;52.230;5.194;2024-01-11T00:16:41;103213.94;;;13.93;52.08
53647;BME280;39550;52.230;5.194;2024-01-11T00:19:06;103203.34;;;13.87;51.35
53647;BME280;39550;52.230;5.194;2024-01-11T00:21:31;103201.59;;;13.86;51.39
53647;BME280;39550;52.230;5.194;2024-01-11T00:23:57;103207.53;;;13.82;51.76
53647;BME280;39550;52.230;5.194;2024-01-11T00:26:22;103208.06;;;13.73;52.71
53647;BME280;39550;52.230;5.194;2024-01-11T00:28:47;103207.16;;;13.71;51.63
53647;BME280;39550;52.230;5.194;2024-01-11T00:31:12;103214.97;;;13.73;51.90
53647;BME280;39550;52.230;5.194;2024-01-11T00:33:38;103211.47;;;13.71;51.62
53647;BME280;39550;52.230;5.194;2024-01-11T00:36:04;103201.72;;;13.63;51.74
53647;BME280;39550;52.230;5.194;2024-01-11T00:38:29;103197.38;;;13.62;51.78
53647;BME280;39550;52.230;5.194;2024-01-11T00:40:54;103193.84;;;13.60;52.03
53647;BME280;39550;52.230;5.194;2024-01-11T00:43:20;103197.94;;;13.54;51.69
53647;BME280;39550;52.230;5.194;2024-01-11T00:45:45;103198.53;;;13.45;52.10
53647;BME280;39550;52.230;5.194;2024-01-11T00:48:11;103201.06;;;13.43;51.73
53647;BME280;39550;52.230;5.194;2024-01-11T00:50:37;103202.44;;;13.34;51.61
53647;BME280;39550;52.230;5.194;2024-01-11T00:53:02;103213.75;;;13.36;52.20
53647;BME280;39550;52.230;5.194;2024-01-11T00:55:28;103205.84;;;13.33;52.24
53647;BME280;39550;52.230;5.194;2024-01-11T00:57:53;103216.16;;;13.31;51.90
53647;BME280;39550;52.230;5.194;2024-01-11T01:00:19;103200.34;;;13.23;52.20
53647;BME280;39550;52.230;5.194;2024-01-11T01:02:44;103199.41;;;13.21;52.22
53647;BME280;39550;52.230;5.194;2024-01-11T01:05:09;103194.00;;;13.15;52.48
53647;BME280;39550;52.230;5.194;2024-01-11T01:07:35;103205.06;;;13.11;51.94
53647;BME280;39550;52.230;5.194;2024-01-11T01:10:00;103203.53;;;13.16;52.00
53647;BME280;39550;52.230;5.194;2024-01-11T01:12:32;103211.41;;;13.19;52.36
53647;BME280;39550;52.230;5.194;2024-01-11T01:14:57;103218.34;;;13.20;52.22
53647;BME280;39550;52.230;5.194;2024-01-11T01:17:23;103221.00;;;13.22;51.98
53647;BME280;39550;52.230;5.194;2024-01-11T01:19:49;103226.13;;;13.20;51.88
53647;BME280;39550;52.230;5.194;2024-01-11T01:22:14;103225.19;;;13.18;51.98
53647;BME280;39550;52.230;5.194;2024-01-11T01:24:40;103219.69;;;13.09;51.82
53647;BME280;39550;52.230;5.194;2024-01-11T01:27:05;103223.19;;;13.11;51.95
53647;BME280;39550;52.230;5.194;2024-01-11T01:29:30;103221.47;;;13.10;51.66
53647;BME280;39550;52.230;5.194;2024-01-11T01:31:55;103223.09;;;13.08;51.47
53647;BME280;39550;52.230;5.194;2024-01-11T01:34:21;103224.75;;;13.06;52.20
53647;BME280;39550;52.230;5.194;2024-01-11T01:36:46;103222.66;;;12.95;51.81
53647;BME280;39550;52.230;5.194;2024-01-11T01:39:11;103234.66;;;12.93;51.77
53647;BME280;39550;52.230;5.194;2024-01-11T01:41:37;103223.31;;;12.90;51.77
53647;BME280;39550;52.230;5.194;2024-01-11T01:44:02;103230.41;;;12.95;52.25
53647;BME280;39550;52.230;5.194;2024-01-11T01:46:28;103227.28;;;12.80;52.06
53647;BME280;39550;52.230;5.194;2024-01-11T01:48:55;103209.09;;;12.78;51.64
53647;BME280;39550;52.230;5.194;2024-01-11T01:51:22;103238.03;;;12.91;52.08
53647;BME280;39550;52.230;5.194;2024-01-11T01:53:50;103222.84;;;13.00;51.46
53647;BME280;39550;52.230;5.194;2024-01-11T01:56:19;103226.63;;;13.10;51.18
53647;BME280;39550;52.230;5.194;2024-01-11T01:58:45;103235.22;;;13.09;51.37
53647;BME280;39550;52.230;5.194;2024-01-11T02:01:11;103236.00;;;13.06;51.12
53647;BME280;39550;52.230;5.194;2024-01-11T02:03:38;103238.47;;;13.03;50.83
53647;BME280;39550;52.230;5.194;2024-01-11T02:06:05;103243.25;;;12.92;51.66
53647;BME280;39550;52.230;5.194;2024-01-11T02:08:32;103256.31;;;12.95;51.59
53647;BME280;39550;52.230;5.194;2024-01-11T02:10:59;103258.19;;;13.00;50.90
53647;BME280;39550;52.230;5.194;2024-01-11T02:13:25;103243.16;;;12.89;51.62
53647;BME280;39550;52.230;5.194;2024-01-11T02:15:50;103256.19;;;12.92;51.37
53647;BME280;39550;52.230;5.194;2024-01-11T02:18:16;103243.53;;;13.00;51.28
53647;BME280;39550;52.230;5.194;2024-01-11T02:20:41;103239.63;;;13.11;50.47
53647;BME280;39550;52.230;5.194;2024-01-11T02:23:12;103223.53;;;13.20;50.37
53647;BME280;39550;52.230;5.194;2024-01-11T02:25:39;103232.56;;;13.32;50.44
53647;BME280;39550;52.230;5.194;2024-01-11T02:28:05;103236.81;;;13.29;50.49
53647;BME280;39550;52.230;5.194;2024-01-11T02:30:30;103232.31;;;13.24;50.10
53647;BME280;39550;52.230;5.194;2024-01-11T02:32:56;103221.56;;;13.13;50.84
53647;BME280;39550;52.230;5.194;2024-01-11T02:35:22;103221.31;;;13.07;50.38
53647;BME280;39550;52.230;5.194;2024-01-11T02:37:49;103226.63;;;13.10;50.72
53647;BME280;39550;52.230;5.194;2024-01-11T02:40:15;103224.75;;;13.06;51.25
53647;BME280;39550;52.230;5.194;2024-01-11T02:42:40;103222.09;;;12.80;51.23
53647;BME280;39550;52.230;5.194;2024-01-11T02:45:06;103222.69;;;12.73;51.10
53647;BME280;39550;52.230;5.194;2024-01-11T02:47:32;103230.47;;;12.73;51.55
53647;BME280;39550;52.230;5.194;2024-01-11T02:49:57;103231.13;;;12.91;50.77
53647;BME280;39550;52.230;5.194;2024-01-11T02:52:23;103231.56;;;13.04;50.53
53647;BME280;39550;52.230;5.194;2024-01-11T02:54:48;103228.28;;;13.08;50.20
53647;BME280;39550;52.230;5.194;2024-01-11T02:57:14;103235.56;;;13.18;50.73
53647;BME280;39550;52.230;5.194;2024-01-11T02:59:39;103236.09;;;13.34;50.22
53647;BME280;39550;52.230;5.194;2024-01-11T03:02:05;103236.38;;;13.41;50.25
53647;BME280;39550;52.230;5.194;2024-01-11T03:04:30;103236.66;;;13.49;49.25
53647;BME280;39550;52.230;5.194;2024-01-11T03:06:55;103230.59;;;13.49;49.61
53647;BME280;39550;52.230;5.194;2024-01-11T03:09:21;103241.94;;;13.52;49.31
53647;BME280;39550;52.230;5.194;2024-01-11T03:11:46;103232.88;;;13.39;49.73
53647;BME280;39550;52.230;5.194;2024-01-11T03:14:11;103246.34;;;13.31;50.33
53647;BME280;39550;52.230;5.194;2024-01-11T03:16:37;103243.47;;;13.23;50.21
53647;BME280;39550;52.230;5.194;2024-01-11T03:19:04;103230.25;;;13.15;50.21
53647;BME280;39550;52.230;5.194;2024-01-11T03:21:30;103241.25;;;13.09;50.20
53647;BME280;39550;52.230;5.194;2024-01-11T03:23:55;103245.00;;;13.18;50.48
53647;BME280;39550;52.230;5.194;2024-01-11T03:26:21;103228.81;;;13.23;49.88
53647;BME280;39550;52.230;5.194;2024-01-11T03:28:46;103240.59;;;13.38;49.59
53647;BME280;39550;52.230;5.194;2024-01-11T03:31:11;103243.47;;;13.47;49.66
53647;BME280;39550;52.230;5.194;2024-01-11T03:33:37;103224.41;;;13.45;48.92
53647;BME280;39550;52.230;5.194;2024-01-11T03:36:09;103236.75;;;13.52;49.43
53647;BME280;39550;52.230;5.194;2024-01-11T03:38:35;103226.38;;;13.52;50.08
53647;BME280;39550;52.230;5.194;2024-01-11T03:41:01;103242.75;;;13.51;49.43
53647;BME280;39550;52.230;5.194;2024-01-11T03:43:26;103235.69;;;13.47;49.21
53647;BME280;39550;52.230;5.194;2024-01-11T03:45:51;103240.00;;;13.47;49.21
53647;BME280;39550;52.230;5.194;2024-01-11T03:48:16;103232.69;;;13.35;49.82
53647;BME280;39550;52.230;5.194;2024-01-11T03:50:42;103222.31;;;13.35;49.71
53647;BME280;39550;52.230;5.194;2024-01-11T03:53:07;103235.50;;;13.41;49.95
53647;BME280;39550;52.230;5.194;2024-01-11T03:55:33;103221.84;;;13.45;49.53
53647;BME280;39550;52.230;5.194;2024-01-11T03:57:59;103248.16;;;13.57;48.79
53647;BME280;39550;52.230;5.194;2024-01-11T04:00:24;103244.69;;;13.57;49.60
53647;BME280;39550;52.230;5.194;2024-01-11T04:02:49;103237.94;;;13.62;49.49
53647;BME280;39550;52.230;5.194;2024-01-11T04:05:15;103243.03;;;13.59;48.89
53647;BME280;39550;52.230;5.194;2024-01-11T04:07:41;103247.22;;;13.55;49.37
53647;BME280;39550;52.230;5.194;2024-01-11T04:10:07;103255.50;;;13.45;49.34
53647;BME280;39550;52.230;5.194;2024-01-11T04:12:35;103241.41;;;13.37;49.48
53647;BME280;39550;52.230;5.194;2024-01-11T04:15:01;103273.84;;;13.51;49.10
53647;BME280;39550;52.230;5.194;2024-01-11T04:17:27;103263.19;;;13.42;49.18
53647;BME280;39550;52.230;5.194;2024-01-11T04:19:52;103277.44;;;13.55;48.97
53647;BME280;39550;52.230;5.194;2024-01-11T04:22:18;103276.75;;;13.60;49.08
53647;BME280;39550;52.230;5.194;2024-01-11T04:24:43;103272.41;;;13.59;48.80
53647;BME280;39550;52.230;5.194;2024-01-11T04:27:08;103278.53;;;13.61;48.57
53647;BME280;39550;52.230;5.194;2024-01-11T04:29:34;103283.91;;;13.68;48.55
53647;BME280;39550;52.230;5.194;2024-01-11T04:31:59;103274.06;;;13.57;48.93
53647;BME280;39550;52.230;5.194;2024-01-11T04:34:24;103287.84;;;13.56;49.50
53647;BME280;39550;52.230;5.194;2024-01-11T04:36:50;103287.84;;;13.56;49.16
53647;BME280;39550;52.230;5.194;2024-01-11T04:39:15;103287.34;;;13.67;48.87
53647;BME280;39550;52.230;5.194;2024-01-11T04:41:41;103290.94;;;13.72;48.91
53647;BME280;39550;52.230;5.194;2024-01-11T04:44:06;103297.13;;;13.75;48.52
53647;BME280;39550;52.230;5.194;2024-01-11T04:46:32;103287.53;;;13.73;48.61
53647;BME280;39550;52.230;5.194;2024-01-11T04:48:57;103285.91;;;13.75;48.82
53647;BME280;39550;52.230;5.194;2024-01-11T04:51:23;103300.03;;;13.85;48.90
53647;BME280;39550;52.230;5.194;2024-01-11T04:53:48;103288.06;;;13.88;48.42
53647;BME280;39550;52.230;5.194;2024-01-11T04:56:15;103291.31;;;13.83;48.45
53647;BME280;39550;52.230;5.194;2024-01-11T04:58:41;103298.41;;;13.88;48.66
53647;BME280;39550;52.230;5.194;2024-01-11T05:01:07;103272.81;;;13.72;48.99
53647;BME280;39550;52.230;5.194;2024-01-11T05:03:36;103278.84;;;13.71;49.23
53647;BME280;39550;52.230;5.194;2024-01-11T05:06:01;103270.69;;;13.60;48.89
53647;BME280;39550;52.230;5.194;2024-01-11T05:08:27;103266.28;;;13.57;49.10
53647;BME280;39550;52.230;5.194;2024-01-11T05:10:53;103273.44;;;13.65;48.79
53647;BME280;39550;52.230;5.194;2024-01-11T05:13:18;103289.09;;;13.68;48.61
53647;BME280;39550;52.230;5.194;2024-01-11T05:15:44;103270.13;;;13.69;48.87
53647;BME280;39550;52.230;5.194;2024-01-11T05:18:09;103277.06;;;13.70;48.87
53647;BME280;39550;52.230;5.194;2024-01-11T05:20:35;103263.41;;;13.74;48.52
53647;BME280;39550;52.230;5.194;2024-01-11T05:23:01;103259.97;;;13.75;48.79
53647;BME280;39550;52.230;5.194;2024-01-11T05:25:26;103274.19;;;13.86;48.65
53647;BME280;39550;52.230;5.194;2024-01-11T05:27:52;103267.13;;;13.82;48.72
53647;BME280;39550;52.230;5.194;2024-01-11T05:30:17;103259.53;;;13.88;48.90
53647;BME280;39550;52.230;5.194;2024-01-11T05:32:43;103249.81;;;13.81;48.81
53647;BME280;39550;52.230;5.194;2024-01-11T05:35:08;103246.31;;;13.79;48.38
53647;BME280;39550;52.230;5.194;2024-01-11T05:37:35;103252.13;;;13.73;48.81
53647;BME280;39550;52.230;5.194;2024-01-11T05:40:01;103260.84;;;13.75;48.17
53647;BME280;39550;52.230;5.194;2024-01-11T05:42:26;103265.25;;;13.78;48.70
53647;BME280;39550;52.230;5.194;2024-01-11T05:44:52;103259.34;;;13.82;48.11
53647;BME280;39550;52.230;5.194;2024-01-11T05:47:17;103245.50;;;13.82;48.40
53647;BME280;39550;52.230;5.194;2024-01-11T05:49:43;103249.03;;;13.84;48.49
53647;BME280;39550;52.230;5.194;2024-01-11T05:52:08;103255.84;;;13.82;48.20
53647;BME280;39550;52.230;5.194;2024-01-11T05:54:33;103269.09;;;13.89;48.17
53647;BME280;39550;52.230;5.194;2024-01-11T05:56:59;103278.59;;;13.89;48.00
53647;BME280;39550;52.230;5.194;2024-01-11T05:59:25;103289.50;;;13.80;48.21
53647;BME280;39550;52.230;5.194;2024-01-11T06:01:50;103293.91;;;13.83;48.26
53647;BME280;39550;52.230;5.194;2024-01-11T06:04:15;103269.00;;;13.86;48.48
53647;BME280;39550;52.230;5.194;2024-01-11T06:06:41;103271.66;;;14.15;48.79
53647;BME280;39550;52.230;5.194;2024-01-11T06:09:07;103286.03;;;14.33;48.88
53647;BME280;39550;52.230;5.194;2024-01-11T06:11:33;103292.53;;;14.47;48.37
53647;BME280;39550;52.230;5.194;2024-01-11T06:13:58;103307.06;;;14.42;48.75
53647;BME280;39550;52.230;5.194;2024-01-11T06:16:23;103324.41;;;14.43;48.95
53647;BME280;39550;52.230;5.194;2024-01-11T06:18:50;103327.81;;;14.42;48.24
53647;BME280;39550;52.230;5.194;2024-01-11T06:21:15;103344.94;;;14.37;48.57
53647;BME280;39550;52.230;5.194;2024-01-11T06:23:45;103339.78;;;14.64;54.03
53647;BME280;39550;52.230;5.194;2024-01-11T06:26:11;103359.03;;;14.71;57.25
53647;BME280;39550;52.230;5.194;2024-01-11T06:28:36;103344.22;;;14.67;54.94
53647;BME280;39550;52.230;5.194;2024-01-11T06:31:01;103354.16;;;14.54;53.42
53647;BME280;39550;52.230;5.194;2024-01-11T06:33:27;103350.22;;;14.40;52.62
53647;BME280;39550;52.230;5.194;2024-01-11T06:35:53;103368.34;;;14.11;51.90
53647;BME280;39550;52.230;5.194;2024-01-11T06:38:18;103368.16;;;14.06;51.84
53647;BME280;39550;52.230;5.194;2024-01-11T06:40:44;103359.41;;;14.03;51.57
53647;BME280;39550;52.230;5.194;2024-01-11T06:43:09;103372.75;;;14.41;51.32
53647;BME280;39550;52.230;5.194;2024-01-11T06:45:34;103366.34;;;14.29;51.62
53647;BME280;39550;52.230;5.194;2024-01-11T06:48:00;103377.34;;;14.22;51.57
53647;BME280;39550;52.230;5.194;2024-01-11T06:50:25;103380.22;;;14.31;51.78
53647;BME280;39550;52.230;5.194;2024-01-11T06:52:51;103365.78;;;14.40;51.29
53647;BME280;39550;52.230;5.194;2024-01-11T06:55:16;103374.44;;;14.39;50.95
53647;BME280;39550;52.230;5.194;2024-01-11T06:57:41;103356.50;;;14.19;51.58
53647;BME280;39550;52.230;5.194;2024-01-11T07:00:07;103378.38;;;14.27;51.72
53647;BME280;39550;52.230;5.194;2024-01-11T07:02:32;103358.06;;;14.14;51.51
53647;BME280;39550;52.230;5.194;2024-01-11T07:04:58;103363.00;;;14.08;52.13
53647;BME280;39550;52.230;5.194;2024-01-11T07:07:23;103370.38;;;14.21;51.69
53647;BME280;39550;52.230;5.194;2024-01-11T07:09:51;103363.16;;;14.38;50.76
53647;BME280;39550;52.230;5.194;2024-01-11T07:12:20;103359.09;;;14.19;51.87
53647;BME280;39550;52.230;5.194;2024-01-11T07:14:46;103344.88;;;14.08;51.96
53647;BME280;39550;52.230;5.194;2024-01-11T07:17:11;103309.28;;;14.04;51.67
53647;BME280;39550;52.230;5.194;2024-01-11T07:19:36;103337.72;;;14.26;51.36
53647;BME280;39550;52.230;5.194;2024-01-11T07:22:02;103331.53;;;14.23;51.03
53647;BME280;39550;52.230;5.194;2024-01-11T07:24:27;103337.91;;;14.33;50.69
53647;BME280;39550;52.230;5.194;2024-01-11T07:26:54;103324.66;;;14.23;51.43
53647;BME280;39550;52.230;5.194;2024-01-11T07:29:20;103347.38;;;14.05;52.21
53647;BME280;39550;52.230;5.194;2024-01-11T07:31:45;103336.69;;;13.95;51.66
53647;BME280;39550;52.230;5.194;2024-01-11T07:34:10;103330.25;;;14.10;51.34
53647;BME280;39550;52.230;5.194;2024-01-11T07:36:36;103335.34;;;14.07;51.00
53647;BME280;39550;52.230;5.194;2024-01-11T07:39:01;103345.41;;;13.98;51.47
53647;BME280;39550;52.230;5.194;2024-01-11T07:41:27;103353.91;;;13.93;51.88
53647;BME280;39550;52.230;5.194;2024-01-11T07:43:53;103351.78;;;14.07;50.79
53647;BME280;39550;52.230;5.194;2024-01-11T07:46:23;103357.09;;;14.12;50.84
53647;BME280;39550;52.230;5.194;2024-01-11T07:48:48;103344.22;;;13.88;51.34
53647;BME280;39550;52.230;5.194;2024-01-11T07:51:14;103354.63;;;14.15;50.44
53647;BME280;39550;52.230;5.194;2024-01-11T07:53:39;103350.91;;;14.07;51.44
53647;BME280;39550;52.230;5.194;2024-01-11T07:56:06;103359.16;;;14.21;50.52
53647;BME280;39550;52.230;5.194;2024-01-11T07:58:31;103361.94;;;14.27;50.60
53647;BME280;39550;52.230;5.194;2024-01-11T08:00:56;103347.00;;;14.20;50.83
53647;BME280;39550;52.230;5.194;2024-01-11T08:03:22;103348.09;;;14.26;50.34
53647;BME280;39550;52.230;5.194;2024-01-11T08:05:47;103351.69;;;14.31;50.37
53647;BME280;39550;52.230;5.194;2024-01-11T08:08:15;103344.38;;;14.18;50.58
53647;BME280;39550;52.230;5.194;2024-01-11T08:10:40;103342.69;;;14.20;50.34
53647;BME280;39550;52.230;5.194;2024-01-11T08:13:07;103328.41;;;14.06;50.55
53647;BME280;39550;52.230;5.194;2024-01-11T08:15:34;103347.28;;;14.02;50.42
53647;BME280;39550;52.230;5.194;2024-01-11T08:18:00;103339.13;;;13.91;50.58
53647;BME280;39550;52.230;5.194;2024-01-11T08:20:25;103344.25;;;13.89;50.92
53647;BME280;39550;52.230;5.194;2024-01-11T08:22:51;103331.19;;;13.86;50.14
53647;BME280;39550;52.230;5.194;2024-01-11T08:25:17;103342.09;;;14.02;50.07
53647;BME280;39550;52.230;5.194;2024-01-11T08:27:42;103354.41;;;14.09;49.83
53647;BME280;39550;52.230;5.194;2024-01-11T08:30:08;103371.88;;;14.14;49.71
53647;BME280;39550;52.230;5.194;2024-01-11T08:32:33;103371.13;;;14.17;49.55
53647;BME280;39550;52.230;5.194;2024-01-11T08:35:05;103369.97;;;14.09;49.60
53647;BME280;39550;52.230;5.194;2024-01-11T08:37:30;103373.38;;;14.08;49.82
53647;BME280;39550;52.230;5.194;2024-01-11T08:39:55;103376.44;;;14.22;49.42
53647;BME280;39550;52.230;5.194;2024-01-11T08:42:20;103378.47;;;14.30;49.35
53647;BME280;39550;52.230;5.194;2024-01-11T08:44:46;103376.84;;;14.34;49.24
53647;BME280;39550;52.230;5.194;2024-01-11T08:47:12;103387.34;;;14.37;48.86
53647;BME280;39550;52.230;5.194;2024-01-11T08:49:40;103380.31;;;14.33;49.40
53647;BME280;39550;52.230;5.194;2024-01-11T08:52:07;103403.56;;;14.31;49.25
53647;BME280;39550;52.230;5.194;2024-01-11T08:54:33;103395.97;;;14.36;49.11
53647;BME280;39550;52.230;5.194;2024-01-11T08:56:59;103415.53;;;14.26;48.92
53647;BME280;39550;52.230;5.194;2024-01-11T08:59:24;103421.06;;;14.37;48.98
53647;BME280;39550;52.230;5.194;2024-01-11T09:01:53;103418.06;;;14.25;49.04
53647;BME280;39550;52.230;5.194;2024-01-11T09:04:19;103424.03;;;14.22;49.52
53647;BME280;39550;52.230;5.194;2024-01-11T09:06:44;103419.47;;;14.15;49.42
53647;BME280;39550;52.230;5.194;2024-01-11T09:09:10;103418.41;;;14.10;49.15
53647;BME280;39550;52.230;5.194;2024-01-11T09:11:36;103422.16;;;14.18;49.41
53647;BME280;39550;52.230;5.194;2024-01-11T09:14:01;103415.97;;;14.14;49.42
53647;BME280;39550;52.230;5.194;2024-01-11T09:16:28;103411.09;;;14.24;49.16
53647;BME280;39550;52.230;5.194;2024-01-11T09:18:54;103418.94;;;14.25;49.25
53647;BME280;39550;52.230;5.194;2024-01-11T09:21:19;103419.94;;;14.29;48.75
53647;BME280;39550;52.230;5.194;2024-01-11T09:23:44;103413.94;;;14.31;48.70
53647;BME280;39550;52.230;5.194;2024-01-11T09:26:10;103417.59;;;14.37;49.01
53647;BME280;39550;52.230;5.194;2024-01-11T09:28:35;103408.75;;;14.31;49.03
53647;BME280;39550;52.230;5.194;2024-01-11T09:31:00;103428.88;;;14.37;49.43
53647;BME280;39550;52.230;5.194;2024-01-11T09:33:27;103425.16;;;14.30;48.54
53647;BME280;39550;52.230;5.194;2024-01-11T09:35:52;103424.94;;;14.24;49.04
53647;BME280;39550;52.230;5.194;2024-01-11T09:38:18;103422.06;;;14.15;49.91
53647;BME280;39550;52.230;5.194;2024-01-11T09:40:43;103442.81;;;14.15;49.10
53647;BME280;39550;52.230;5.194;2024-01-11T09:43:09;103434.94;;;14.13;49.34
53647;BME280;39550;52.230;5.194;2024-01-11T09:45:35;103430.84;;;14.20;49.74
53647;BME280;39550;52.230;5.194;2024-01-11T09:48:01;103430.84;;;14.20;49.00
53647;BME280;39550;52.230;5.194;2024-01-11T09:50:28;103429.31;;;14.25;49.46
53647;BME280;39550;52.230;5.194;2024-01-11T09:52:53;103424.31;;;14.31;49.27
53647;BME280;39550;52.230;5.194;2024-01-11T09:55:19;103436.69;;;14.39;48.94
53647;BME280;39550;52.230;5.194;2024-01-11T09:57:46;103436.78;;;14.42;49.59
53647;BME280;39550;52.230;5.194;2024-01-11T10:00:21;103423.88;;;14.43;48.79
53647;BME280;39550;52.230;5.194;2024-01-11T10:02:47;103431.78;;;14.48;49.23
53647;BME280;39550;52.230;5.194;2024-01-11T10:05:13;103436.47;;;14.33;49.17
53647;BME280;39550;52.230;5.194;2024-01-11T10:07:41;103440.94;;;14.37;49.26
53647;BME280;39550;52.230;5.194;2024-01-11T10:10:07;103447.78;;;14.35;49.32
53647;BME280;39550;52.230;5.194;2024-01-11T10:12:36;103438.75;;;14.23;49.58
53647;BME280;39550;52.230;5.194;2024-01-11T10:15:05;103459.72;;;14.29;49.60
53647;BME280;39550;52.230;5.194;2024-01-11T10:17:31;103444.19;;;14.31;49.68
53647;BME280;39550;52.230;5.194;2024-01-11T10:19:56;103439.88;;;14.31;48.80
53647;BME280;39550;52.230;5.194;2024-01-11T10:22:23;103444.44;;;14.37;49.69
53647;BME280;39550;52.230;5.194;2024-01-11T10:24:49;103441.19;;;14.44;49.13
53647;BME280;39550;52.230;5.194;2024-01-11T10:27:14;103438.84;;;14.52;49.03
53647;BME280;39550;52.230;5.194;2024-01-11T10:29:40;103431.78;;;14.48;49.51
53647;BME280;39550;52.230;5.194;2024-01-11T10:32:05;103449.53;;;14.61;49.15
53647;BME280;39550;52.230;5.194;2024-01-11T10:34:30;103449.13;;;14.49;49.41
53647;BME280;39550;52.230;5.194;2024-01-11T10:36:56;103444.16;;;14.55;48.88
53647;BME280;39550;52.230;5.194;2024-01-11T10:39:26;103447.91;;;14.63;48.85
53647;BME280;39550;52.230;5.194;2024-01-11T10:41:54;103455.59;;;14.62;49.01
53647;BME280;39550;52.230;5.194;2024-01-11T10:44:25;103457.19;;;14.57;49.55
53647;BME280;39550;52.230;5.194;2024-01-11T10:46:55;103459.31;;;14.43;48.98
53647;BME280;39550;52.230;5.194;2024-01-11T10:49:22;103471.34;;;14.41;49.54
53647;BME280;39550;52.230;5.194;2024-01-11T10:51:59;103458.94;;;14.32;49.96
53647;BME280;39550;52.230;5.194;2024-01-11T10:54:26;103476.09;;;14.28;50.22
53647;BME280;39550;52.230;5.194;2024-01-11T10:56:53;103476.03;;;14.27;49.52
53647;BME280;39550;52.230;5.194;2024-01-11T10:59:20;103478.78;;;14.31;49.49
53647;BME280;39550;52.230;5.194;2024-01-11T11:01:51;103471.00;;;14.31;49.41
53647;BME280;39550;52.230;5.194;2024-01-11T11:04:17;103482.47;;;14.38;49.71
53647;BME280;39550;52.230;5.194;2024-01-11T11:06:44;103479.06;;;14.39;49.31
53647;BME280;39550;52.230;5.194;2024-01-11T11:09:11;103472.22;;;14.41;49.56
53647;BME280;39550;52.230;5.194;2024-01-11T11:11:39;103473.09;;;14.42;49.08
53647;BME280;39550;52.230;5.194;2024-01-11T11:14:05;103471.56;;;14.47;49.84
53647;BME280;39550;52.230;5.194;2024-01-11T11:16:31;103470.09;;;14.55;49.67
53647;BME280;39550;52.230;5.194;2024-01-11T11:18:57;103452.53;;;14.48;48.76
53647;BME280;39550;52.230;5.194;2024-01-11T11:21:22;103469.56;;;14.64;48.92
53647;BME280;39550;52.230;5.194;2024-01-11T11:23:50;103460.94;;;14.65;48.65
53647;BME280;39550;52.230;5.194;2024-01-11T11:26:18;103464.47;;;14.67;49.37
53647;BME280;39550;52.230;5.194;2024-01-11T11:28:44;103460.09;;;14.66;49.58
53647;BME280;39550;52.230;5.194;2024-01-11T11:31:13;103463.16;;;14.54;49.98
53647;BME280;39550;52.230;5.194;2024-01-11T11:33:38;103452.66;;;14.51;49.04
53647;BME280;39550;52.230;5.194;2024-01-11T11:36:03;103434.06;;;14.37;49.51
53647;BME280;39550;52.230;5.194;2024-01-11T11:38:30;103443.56;;;14.38;49.99
53647;BME280;39550;52.230;5.194;2024-01-11T11:40:57;103445.06;;;14.31;50.16
53647;BME280;39550;52.230;5.194;2024-01-11T11:43:24;103439.88;;;14.31;50.56
53647;BME280;39550;52.230;5.194;2024-01-11T11:45:51;103438.25;;;14.34;49.57
53647;BME280;39550;52.230;5.194;2024-01-11T11:51:12;103429.63;;;14.35;50.55
53647;BME280;39550;52.230;5.194;2024-01-11T11:53:38;103422.88;;;14.40;50.26
53647;BME280;39550;52.230;5.194;2024-01-11T11:56:05;103426.41;;;14.42;49.76
53647;BME280;39550;52.230;5.194;2024-01-11T11:58:32;103416.38;;;14.53;50.17
53647;BME280;39550;52.230;5.194;2024-01-11T12:00:59;103412.81;;;14.49;49.61
53647;BME280;39550;52.230;5.194;2024-01-11T12:03:35;103385.31;;;14.54;50.00
53647;BME280;39550;52.230;5.194;2024-01-11T12:06:04;103404.81;;;14.69;49.55
53647;BME280;39550;52.230;5.194;2024-01-11T12:08:33;103386.50;;;14.64;50.03
53647;BME280;39550;52.230;5.194;2024-01-11T12:10:59;103379.38;;;14.58;50.28
53647;BME280;39550;52.230;5.194;2024-01-11T12:13:25;103374.03;;;14.54;49.71
53647;BME280;39550;52.230;5.194;2024-01-11T12:15:50;103379.91;;;14.48;50.23
53647;BME280;39550;52.230;5.194;2024-01-11T12:18:16;103365.91;;;14.43;49.80
53647;BME280;39550;52.230;5.194;2024-01-11T12:20:42;103370.97;;;14.40;50.07
53647;BME280;39550;52.230;5.194;2024-01-11T12:23:07;103373.34;;;14.32;50.51
53647;BME280;39550;52.230;5.194;2024-01-11T12:25:33;103378.72;;;14.38;50.36
53647;BME280;39550;52.230;5.194;2024-01-11T12:27:58;103372.75;;;14.41;50.61
53647;BME280;39550;52.230;5.194;2024-01-11T12:30:25;103373.56;;;14.40;50.06
53647;BME280;39550;52.230;5.194;2024-01-11T12:32:50;103367.56;;;14.41;49.61
53647;BME280;39550;52.230;5.194;2024-01-11T12:35:17;103358.13;;;14.43;50.40
53647;BME280;39550;52.230;5.194;2024-01-11T12:38:04;103346.81;;;14.41;49.55
53647;BME280;39550;52.230;5.194;2024-01-11T12:40:36;103342.84;;;14.52;49.39
53647;BME280;39550;52.230;5.194;2024-01-11T12:43:05;103349.06;;;14.57;50.17
53647;BME280;39550;52.230;5.194;2024-01-11T12:45:31;103358.94;;;14.68;49.77
53647;BME280;39550;52.230;5.194;2024-01-11T12:48:01;103352.81;;;14.66;49.89